Time;durP1;ratioP1;P1;durP2;ratioP2;P2;SDS_P1;SDS_P2;PMS_P1;PMS_P2;Temp;Humidity;BMP_temperature;BMP_pressure;BME280_temperature;BME280_humidity;BME280_pressure;Samples;Min_cycle;Max_cycle;Signal;HPM_P1;HPM_P2
2022/07/22 06:12:41;;;;;;;27.02;16.65;;;;;;;20.99;72.67;99698.46;1858880;75;22738;-60
2022/07/22 06:15:28;;;;;;;30.15;16.57;;;;;;;20.90;72.79;99708.59;1817676;77;25741;-60
2022/07/22 06:17:54;;;;;;;26.80;16.30;;;;;;;20.90;72.93;99705.94;1677174;84;21201;-60
2022/07/22 06:20:21;;;;;;;25.00;15.45;;;;;;;20.90;73.09;99705.94;1686704;84;22496;-60
2022/07/22 06:22:48;;;;;;;21.20;15.85;;;;;;;20.89;73.25;99701.59;1688425;84;21040;-59
2022/07/22 06:25:15;;;;;;;23.00;15.85;;;;;;;20.87;73.45;99706.22;1688748;84;20985;-59
2022/07/22 06:27:42;;;;;;;;;;;;;;;20.88;73.72;99715.36;1658037;84;21593;-58
2022/07/22 06:30:12;;;;;;;18.27;14.98;;;;;;;20.95;74.34;99709.86;1642995;85;20537;-58
2022/07/22 06:32:38;;;;;;;28.83;15.53;;;;;;;21.33;74.78;99696.69;1624897;88;21602;-60
2022/07/22 06:35:06;;;;;;;21.45;15.78;;;;;;;21.93;74.97;99693.28;1630545;86;21050;-60
2022/07/22 06:37:33;;;;;;;15.68;10.93;;;;;;;22.40;74.96;99693.20;1631458;87;21011;-60
2022/07/22 06:40:00;;;;;;;40.20;11.70;;;;;;;22.87;74.61;99686.37;1633909;87;21181;-61
2022/07/22 06:42:26;;;;;;;18.73;9.90;;;;;;;23.12;74.04;99686.63;1630277;87;22266;-60
2022/07/22 06:44:54;;;;;;;14.47;9.73;;;;;;;23.54;74.64;99683.27;1623906;87;21102;-61
2022/07/22 06:47:22;;;;;;;15.20;9.90;;;;;;;23.74;73.74;99697.24;1606679;87;21786;-61
2022/07/22 06:49:50;;;;;;;14.23;10.18;;;;;;;23.55;73.16;99706.24;1629509;87;20980;-61
2022/07/22 06:52:18;;;;;;;13.68;10.43;;;;;;;23.26;73.12;99716.70;1635333;87;21140;-61
2022/07/22 06:54:45;;;;;;;19.87;11.60;;;;;;;23.04;73.41;99723.83;1631033;87;21007;-62
2022/07/22 06:57:12;;;;;;;;;;;;;;;22.86;73.72;99719.81;1635780;87;21033;-60
2022/07/22 06:59:41;;;;;;;14.75;11.28;;;;;;;22.81;74.07;99718.92;1630899;86;20178;-61
2022/07/22 07:02:10;;;;;;;16.77;10.98;;;;;;;22.81;74.17;99712.27;1626743;87;21090;-61
2022/07/22 07:06:17;;;;;;;12.28;10.30;;;;;;;22.91;74.20;99697.54;1835553;75;22359;-60
2022/07/22 07:08:45;;;;;;;18.52;10.10;;;;;;;22.82;74.07;99707.28;1793572;79;21262;-59
2022/07/22 07:11:20;;;;;;;13.20;9.53;;;;;;;22.78;74.15;99711.25;1789915;79;20997;-59
2022/07/22 07:13:49;;;;;;;16.05;11.70;;;;;;;22.71;74.09;99707.50;1766531;79;22322;-59
2022/07/22 07:16:24;;;;;;;13.15;10.18;;;;;;;22.62;74.32;99713.23;1799987;79;20970;-61
2022/07/22 07:18:56;;;;;;;15.72;11.45;;;;;;;22.51;73.99;99714.77;1786110;79;21253;-60
2022/07/22 07:21:30;;;;;;;14.78;11.70;;;;;;;22.33;74.21;99722.73;1764914;79;21086;-60
2022/07/22 07:24:01;;;;;;;15.60;11.63;;;;;;;22.28;74.51;99732.97;1796173;79;22013;-60
2022/07/22 07:26:30;;;;;;;17.65;12.20;;;;;;;22.23;74.51;99728.08;1742419;79;21004;-60
2022/07/22 07:28:59;;;;;;;16.23;12.30;;;;;;;22.13;74.36;99733.42;1795321;79;21646;-60
2022/07/22 07:34:16;;;;;;;15.00;12.63;;;;;;;21.87;74.45;99743.02;1736290;81;21240;-60
2022/07/22 07:36:45;;;;;;;17.70;12.35;;;;;;;21.65;74.58;99748.20;1726411;82;21316;-60
2022/07/22 07:39:13;;;;;;;14.58;13.05;;;;;;;21.54;74.74;99755.84;1727449;82;21523;-60
2022/07/22 07:41:40;;;;;;;16.30;13.40;;;;;;;21.45;74.87;99751.34;1732848;81;21000;-60
2022/07/22 07:44:08;;;;;;;17.10;13.20;;;;;;;21.38;75.09;99760.88;1725180;82;21009;-60
2022/07/22 07:46:35;;;;;;;15.85;14.15;;;;;;;21.37;75.42;99761.84;1726161;81;21609;-60
2022/07/22 07:49:02;;;;;;;16.42;13.55;;;;;;;21.45;75.49;99765.96;1741079;81;21008;-60
2022/07/22 07:51:30;;;;;;;16.67;13.70;;;;;;;21.60;75.88;99752.60;1733928;81;21497;-61
2022/07/22 07:54:00;;;;;;;19.15;14.60;;;;;;;21.83;76.04;99762.91;1724962;81;22264;-60
2022/07/22 07:56:31;;;;;;;18.77;13.35;;;;;;;21.96;75.77;99757.25;1706784;82;21613;-60
2022/07/22 07:58:59;;;;;;;17.42;13.75;;;;;;;22.12;75.83;99758.81;1691678;83;22201;-60
2022/07/22 08:01:27;;;;;;;16.60;14.00;;;;;;;22.24;75.80;99766.17;1726616;82;21032;-59
2022/07/22 08:03:55;;;;;;;18.17;13.55;;;;;;;22.43;75.99;99760.73;1729421;81;21001;-60
2022/07/22 08:06:21;;;;;;;16.27;13.20;;;;;;;22.64;76.09;99757.01;1723680;82;21360;-60
2022/07/22 08:08:48;;;;;;;13.53;12.13;;;;;;;22.88;76.22;99754.62;1682368;83;21072;-60
2022/07/22 08:11:14;;;;;;;14.63;13.05;;;;;;;23.15;76.19;99750.23;1696864;83;21052;-60
2022/07/22 08:13:41;;;;;;;17.57;13.70;;;;;;;23.39;75.62;99749.11;1732716;80;22865;-60
2022/07/22 08:16:08;;;;;;;13.25;11.90;;;;;;;23.55;75.61;99752.38;1698153;83;21066;-60
2022/07/22 08:18:35;;;;;;;13.85;12.10;;;;;;;23.73;75.38;99755.05;1680675;83;21166;-60
2022/07/22 08:21:02;;;;;;;15.58;12.10;;;;;;;23.89;75.34;99747.16;1693757;84;21035;-60
2022/07/22 08:23:29;;;;;;;14.75;11.38;;;;;;;24.38;76.14;99741.22;1678584;84;21048;-60
2022/07/22 08:25:56;;;;;;;16.05;12.30;;;;;;;25.02;76.09;99736.25;1677474;84;22009;-61
2022/07/22 08:28:23;;;;;;;14.45;11.08;;;;;;;25.41;75.60;99730.28;1677348;83;20990;-61
2022/07/22 08:30:50;;;;;;;15.75;10.10;;;;;;;25.70;74.87;99731.58;1680103;83;27695;-61
2022/07/22 08:33:16;;;;;;;12.33;9.88;;;;;;;25.92;74.89;99728.22;1727766;81;20917;-60
2022/07/22 08:35:43;;;;;;;13.45;10.63;;;;;;;26.10;74.57;99715.46;1717660;82;21020;-61
2022/07/22 08:38:10;;;;;;;12.33;10.72;;;;;;;26.51;74.88;99711.78;1736876;81;21063;-61
2022/07/22 08:40:37;;;;;;;17.50;10.58;;;;;;;26.94;74.56;99715.71;1718197;81;21167;-61
2022/07/22 08:43:04;;;;;;;15.58;10.10;;;;;;;27.03;73.22;99704.91;1721378;81;21012;-61
2022/07/22 08:45:31;;;;;;;16.30;9.88;;;;;;;27.11;73.27;99699.48;1722628;82;20992;-61
2022/07/22 08:47:59;;;;;;;12.58;8.95;;;;;;;27.21;72.39;99697.42;1713244;82;21244;-62
2022/07/22 08:50:26;;;;;;;10.58;8.68;;;;;;;27.32;72.26;99696.99;1727173;82;22351;-61
2022/07/22 08:52:53;;;;;;;10.28;8.75;;;;;;;27.53;72.42;99686.06;1720653;82;21019;-61
2022/07/22 08:55:21;;;;;;;12.05;8.88;;;;;;;27.79;71.75;99685.16;1726449;81;21011;-61
2022/07/22 08:57:54;;;;;;;12.98;9.90;;;;;;;28.06;71.04;99680.13;1723686;82;21048;-61
2022/07/22 09:00:24;;;;;;;14.47;9.10;;;;;;;28.06;70.62;99680.13;1727131;82;20932;-60
2022/07/22 09:02:55;;;;;;;10.58;7.87;;;;;;;28.18;70.27;99667.92;1728067;82;21041;-60
2022/07/22 09:05:24;;;;;;;10.72;7.62;;;;;;;28.23;69.51;99654.77;1726669;81;21591;-61
2022/07/22 09:07:51;;;;;;;9.83;7.75;;;;;;;28.30;69.72;99651.63;1711385;82;21080;-61
2022/07/22 09:10:21;;;;;;;11.40;7.45;;;;;;;28.44;69.30;99651.82;1727694;82;21568;-61
2022/07/22 09:12:59;;;;;;;18.45;8.18;;;;;;;28.61;68.95;99643.01;1728563;82;21545;-60
2022/07/22 09:15:30;;;;;;;13.08;7.67;;;;;;;28.61;68.15;99643.01;1720970;82;21820;-60
2022/07/22 09:17:59;;;;;;;9.13;7.25;;;;;;;28.54;67.76;99645.64;1728376;82;20922;-61
2022/07/22 09:20:28;;;;;;;8.93;8.13;;;;;;;28.46;67.30;99645.76;1728456;82;20936;-61
2022/07/22 09:22:55;;;;;;;11.00;9.58;;;;;;;28.31;66.84;99646.58;1730702;82;21027;-61
2022/07/22 09:25:36;;;;;;;13.20;9.05;;;;;;;28.22;66.53;99647.72;1728319;82;21054;-60
2022/07/22 09:28:11;;;;;;;9.73;8.73;;;;;;;28.22;66.45;99652.26;1729915;81;21061;-61
2022/07/22 09:30:53;;;;;;;12.10;8.73;;;;;;;28.31;66.46;99647.91;1724694;82;21099;-60
2022/07/22 09:33:21;;;;;;;9.50;8.50;;;;;;;28.43;66.25;99651.48;1722654;82;21553;-61
2022/07/22 09:35:49;;;;;;;9.60;8.60;;;;;;;28.62;65.92;99658.92;1728773;81;20997;-60
2022/07/22 09:38:19;;;;;;;10.95;8.43;;;;;;;28.71;65.52;99655.11;1696116;84;21003;-60
2022/07/22 09:40:48;;;;;;;10.10;8.10;;;;;;;28.82;65.20;99651.08;1660772;85;21916;-60
2022/07/22 09:43:19;;;;;;;13.48;9.10;;;;;;;29.12;65.54;99654.45;1680154;84;21100;-60
2022/07/22 09:45:57;;;;;;;11.18;9.45;;;;;;;29.31;64.19;99660.19;1681115;83;20973;-60
2022/07/22 09:48:24;;;;;;;13.18;8.93;;;;;;;29.17;64.19;99654.70;1677823;83;20997;-61
2022/07/22 09:50:55;;;;;;;11.38;9.70;;;;;;;29.34;64.04;99654.42;1681719;83;21145;-61
2022/07/22 09:53:26;;;;;;;10.53;8.88;;;;;;;29.47;63.51;99657.20;1731415;82;21094;-61
2022/07/22 09:55:53;;;;;;;9.08;8.13;;;;;;;29.65;63.65;99669.65;1723182;82;21051;-61
2022/07/22 09:58:20;;;;;;;8.80;7.90;;;;;;;29.78;62.97;99664.05;1729585;82;20996;-61
2022/07/22 10:00:51;;;;;;;;;;;;;;;29.66;62.48;99665.95;1727281;82;21029;-61
2022/07/22 10:03:28;;;;;;;11.15;7.90;;;;;;;29.44;62.21;99679.95;1722529;82;20163;-61
2022/07/22 10:05:56;;;;;;;8.63;7.72;;;;;;;29.08;61.04;99676.04;1729374;82;20982;-61
2022/07/22 10:08:29;;;;;;;8.53;7.42;;;;;;;28.43;61.33;99681.02;1731215;81;21014;-61
2022/07/22 10:11:04;;;;;;;10.18;7.30;;;;;;;28.09;61.62;99682.44;1729600;82;20995;-61
2022/07/22 10:13:34;;;;;;;9.48;7.40;;;;;;;27.57;60.86;99687.38;1726363;82;21815;-60
2022/07/22 10:16:02;;;;;;;7.90;7.10;;;;;;;27.28;61.18;99696.19;1728039;82;21569;-60
2022/07/22 10:18:30;;;;;;;14.58;7.58;;;;;;;27.37;61.86;99697.28;1729105;82;21446;-61
2022/07/22 10:21:07;;;;;;;8.90;7.45;;;;;;;27.79;61.94;99690.52;1694934;84;20958;-60
2022/07/22 10:23:34;;;;;;;7.62;6.90;;;;;;;28.07;61.55;99692.55;1694359;83;20939;-60
2022/07/22 10:26:03;;;;;;;9.53;7.28;;;;;;;28.18;61.23;99689.39;1662951;84;21594;-61
2022/07/22 10:28:36;;;;;;;8.45;7.33;;;;;;;28.13;60.99;99690.46;1755592;81;20920;-60
2022/07/22 10:31:25;;;;;;;9.93;6.62;;;;;;;28.00;60.85;99696.98;1727363;82;21075;-61
2022/07/22 10:33:57;;;;;;;9.78;6.28;;;;;;;27.89;60.69;99691.06;1727764;82;20955;-62
2022/07/22 10:36:38;;;;;;;7.42;6.37;;;;;;;28.02;60.72;99692.27;1730230;81;21575;-61
2022/07/22 10:39:09;;;;;;;7.75;6.30;;;;;;;28.00;60.59;99692.96;1698122;83;21031;-61
2022/07/22 10:41:43;;;;;;;7.12;6.42;;;;;;;28.18;60.48;99689.39;1731931;81;20959;-61
2022/07/22 10:44:11;;;;;;;7.03;5.92;;;;;;;28.68;60.83;99689.08;1731554;81;21411;-61
2022/07/22 10:46:54;;;;;;;6.95;6.08;;;;;;;28.76;58.50;99691.64;1732096;81;21580;-60
2022/07/22 10:49:24;;;;;;;7.80;6.10;;;;;;;28.08;58.07;99691.52;1727675;81;21021;-61
2022/07/22 10:52:16;;;;;;;6.90;6.20;;;;;;;27.63;58.55;99698.70;1729782;81;21008;-62
2022/07/22 10:55:21;;;;;;;7.55;6.17;;;;;;;27.29;58.21;99702.72;1729651;82;21639;-60
2022/07/22 10:57:49;;;;;;;6.58;5.40;;;;;;;27.05;58.83;99692.99;1726144;82;21119;-61
2022/07/22 11:00:15;;;;;;;9.15;5.37;;;;;;;27.54;59.19;99697.13;1722319;82;21278;-60
2022/07/22 11:02:42;;;;;;;6.75;5.40;;;;;;;27.97;59.00;99686.63;1723046;82;20951;-59
2022/07/22 11:05:09;;;;;;;;;;;;;;;28.07;58.64;99682.64;1745438;81;21522;-60
2022/07/22 11:07:47;;;;;;;7.50;5.47;;;;;;;28.10;58.25;99686.81;1730186;82;20112;-59
2022/07/22 11:10:18;;;;;;;8.88;5.70;;;;;;;28.20;58.29;99690.02;1717992;81;21309;-59
2022/07/22 11:12:46;;;;;;;5.65;5.15;;;;;;;28.19;58.36;99691.56;1729619;82;20999;-60
2022/07/22 11:15:13;;;;;;;6.10;5.50;;;;;;;28.13;57.81;99689.12;1730251;82;21593;-59
2022/07/22 11:17:41;;;;;;;8.08;5.70;;;;;;;28.04;57.96;99690.25;1727913;82;20949;-60
2022/07/22 11:20:16;;;;;;;11.38;6.25;;;;;;;28.13;57.98;99686.44;1734834;81;21108;-61
2022/07/22 11:22:46;;;;;;;8.45;5.42;;;;;;;28.34;58.13;99683.81;1711364;81;21562;-61
2022/07/22 11:28:03;;;;;;;7.53;5.70;;;;;;;29.10;58.14;99672.66;1747642;80;21052;-59
2022/07/22 11:30:30;;;;;;;7.40;5.47;;;;;;;29.53;57.62;99677.94;1751810;81;21065;-59
2022/07/22 11:32:56;;;;;;;;;;;;;;;29.89;57.42;99674.25;1738799;80;21008;-59
2022/07/22 11:35:23;;;;;;;9.73;5.40;;;;;;;30.15;56.77;99680.79;1717652;82;21044;-59
2022/07/22 11:37:57;;;;;;;5.28;4.78;;;;;;;30.08;56.49;99678.91;1745806;81;21004;-59
2022/07/22 11:40:24;;;;;;;6.33;5.08;;;;;;;30.01;56.13;99678.03;1733156;81;21039;-63
2022/07/22 11:43:03;;;;;;;8.55;5.67;;;;;;;30.10;56.13;99676.00;1680236;84;21610;-62
2022/07/22 11:45:30;;;;;;;6.67;4.80;;;;;;;30.10;55.86;99668.74;1705560;82;21065;-62
2022/07/22 11:47:57;;;;;;;;;;;;;;;29.58;54.33;99666.08;1722946;83;21406;-62
2022/07/22 11:50:31;;;;;;;6.90;5.70;;;;;;;28.83;53.93;99666.69;1693217;83;20242;-62
2022/07/22 11:52:58;;;;;;;7.67;5.83;;;;;;;28.11;54.04;99664.31;1705009;83;21042;-61
2022/07/22 11:55:24;;;;;;;;;;;;;;;27.55;54.60;99677.34;1703973;83;20970;-61
2022/07/22 11:57:51;;;;;;;;;;;;;;;27.30;54.63;99685.61;1716000;83;20453;-61
2022/07/22 12:00:19;;;;;;;5.97;5.37;;;;;;;26.92;54.58;99680.22;1742251;81;21356;-60
2022/07/22 12:02:47;;;;;;;9.65;6.25;;;;;;;26.52;54.68;99684.84;1757327;81;21008;-61
2022/07/22 12:05:20;;;;;;;6.78;6.08;;;;;;;26.18;55.05;99686.98;1758493;81;20919;-59
2022/07/22 12:07:47;;;;;;;7.40;6.03;;;;;;;26.07;55.26;99683.67;1707272;82;21520;-59
2022/07/22 12:10:14;;;;;;;8.98;6.20;;;;;;;25.95;55.44;99671.69;1697666;82;21107;-59
2022/07/22 12:12:42;;;;;;;6.55;5.87;;;;;;;25.92;55.49;99669.37;1705466;82;21082;-60
2022/07/22 12:15:10;;;;;;;6.47;5.87;;;;;;;26.17;55.91;99671.95;1703834;82;20939;-59
2022/07/22 12:17:37;;;;;;;6.67;6.03;;;;;;;26.62;56.08;99671.73;1665037;83;20958;-59
2022/07/22 12:20:12;;;;;;;9.90;5.95;;;;;;;26.85;55.11;99676.57;1702994;83;21498;-60
2022/07/22 12:22:46;;;;;;;6.70;6.00;;;;;;;26.77;55.25;99668.59;1689178;83;20972;-61
2022/07/22 12:25:16;;;;;;;11.70;6.65;;;;;;;26.81;55.76;99675.28;1710976;83;21681;-60
2022/07/22 12:27:41;;;;;;;6.67;5.95;;;;;;;27.10;56.18;99673.70;1696892;81;20966;-60
2022/07/22 12:30:17;;;;;;;;;;;;;;;27.23;55.48;99679.33;1681336;84;21582;-60
2022/07/22 12:32:48;;;;;;;9.85;6.12;;;;;;;27.31;55.39;99677.91;1701067;82;20529;-59
2022/07/22 12:35:15;;;;;;;7.70;6.28;;;;;;;27.34;55.37;99680.23;1705554;82;20965;-60
2022/07/22 12:37:44;;;;;;;6.90;6.20;;;;;;;27.32;55.10;99678.23;1702605;84;23212;-59
2022/07/22 12:40:21;;;;;;;14.93;6.85;;;;;;;26.94;54.37;99671.50;1703353;82;21097;-60
2022/07/22 12:43:06;;;;;;;8.20;6.45;;;;;;;26.62;54.79;99670.39;1693616;82;21017;-60
2022/07/22 12:45:38;;;;;;;9.50;7.08;;;;;;;26.42;55.07;99676.16;1702344;82;21072;-58
2022/07/22 12:48:09;;;;;;;7.30;6.45;;;;;;;26.39;55.25;99675.17;1690605;83;20942;-59
2022/07/22 12:50:41;;;;;;;7.28;6.58;;;;;;;26.39;55.32;99676.52;1718803;82;21076;-59
2022/07/22 12:53:15;;;;;;;9.35;6.08;;;;;;;26.36;55.08;99668.84;1691494;83;21048;-59
2022/07/22 12:55:51;;;;;;;8.30;6.53;;;;;;;26.40;55.56;99676.83;1694293;83;20989;-59
2022/07/22 12:58:19;;;;;;;7.23;6.60;;;;;;;26.46;55.53;99674.78;1705287;83;21048;-60
2022/07/22 13:00:49;;;;;;;7.17;6.37;;;;;;;26.45;55.87;99675.80;1677215;84;21688;-60
2022/07/22 13:03:18;;;;;;;10.65;6.62;;;;;;;26.38;55.79;99678.84;1710180;82;21078;-60
2022/07/22 13:05:47;;;;;;;7.12;6.30;;;;;;;26.34;55.91;99678.88;1712470;82;20950;-60
2022/07/22 13:08:14;;;;;;;6.55;5.95;;;;;;;26.37;56.12;99675.02;1709167;81;21506;-60
2022/07/22 13:10:41;;;;;;;;;;;;;;;26.15;55.98;99679.31;1710261;82;21072;-60
2022/07/22 13:13:11;;;;;;;8.53;7.45;;;;;;;25.74;56.65;99674.06;1715350;82;20521;-60
2022/07/22 13:15:38;;;;;;;7.97;7.00;;;;;;;25.21;56.76;99679.84;1705720;82;21142;-60
2022/07/22 13:18:05;;;;;;;10.93;6.92;;;;;;;24.93;57.08;99673.15;1692796;82;20930;-60
2022/07/22 13:20:32;;;;;;;7.83;7.00;;;;;;;24.75;57.34;99668.77;1717450;82;20934;-61
2022/07/22 13:22:59;;;;;;;8.40;7.05;;;;;;;24.66;57.92;99671.10;1710468;82;21017;-60
2022/07/22 13:25:26;;;;;;;8.63;7.72;;;;;;;24.46;58.36;99676.41;1683483;84;21514;-60
2022/07/22 13:27:54;;;;;;;8.73;7.67;;;;;;;24.26;58.68;99671.31;1700187;82;21487;-61
2022/07/22 13:30:20;;;;;;;7.67;6.87;;;;;;;24.15;60.42;99678.78;1718582;81;20958;-60
2022/07/22 13:32:47;;;;;;;9.10;7.62;;;;;;;23.84;59.57;99677.47;1702308;83;21093;-60
2022/07/22 13:35:14;;;;;;;8.10;7.28;;;;;;;23.64;59.92;99685.34;1694102;83;20964;-59
2022/07/22 13:37:46;;;;;;;8.80;7.10;;;;;;;23.40;60.44;99697.99;1696202;83;21032;-60
2022/07/22 13:40:15;;;;;;;12.78;8.50;;;;;;;23.25;60.81;99700.39;1686988;83;21259;-61
2022/07/22 13:42:42;;;;;;;11.18;9.75;;;;;;;23.14;61.48;99692.64;1688705;83;21077;-60
2022/07/22 13:45:11;;;;;;;10.75;9.60;;;;;;;23.03;61.56;99688.38;1684376;83;20961;-60
2022/07/22 13:47:41;;;;;;;12.82;10.88;;;;;;;23.21;61.96;99683.02;1694833;83;21143;-61
2022/07/22 13:50:09;;;;;;;10.58;9.58;;;;;;;23.48;62.21;99685.23;1687216;83;21080;-60
2022/07/22 13:52:36;;;;;;;14.73;9.25;;;;;;;23.74;63.47;99679.41;1685926;83;21128;-60
2022/07/22 13:55:06;;;;;;;11.00;9.23;;;;;;;24.00;62.87;99674.06;1688895;83;21023;-60
2022/07/22 13:57:34;;;;;;;16.00;11.65;;;;;;;24.45;63.10;99666.23;1700124;82;21605;-60
2022/07/22 14:00:04;;;;;;;16.80;11.85;;;;;;;24.94;63.05;99666.80;1684495;83;20981;-60
2022/07/22 14:02:31;;;;;;;14.38;12.45;;;;;;;25.27;63.31;99654.30;1696208;83;21008;-60
2022/07/22 14:04:57;;;;;;;;;;;;;;;25.40;62.94;99648.41;1685175;83;21451;-60
2022/07/22 14:07:27;;;;;;;17.30;12.25;;;;;;;25.45;63.18;99646.06;1692391;83;20707;-60
2022/07/22 14:09:55;;;;;;;18.57;14.18;;;;;;;25.52;63.41;99648.91;1685025;83;20997;-60
2022/07/22 14:12:22;;;;;;;14.65;13.03;;;;;;;25.60;63.35;99639.03;1692639;83;21000;-60
2022/07/22 14:14:50;;;;;;;15.70;12.90;;;;;;;25.51;63.34;99636.02;1685488;82;21027;-60
2022/07/22 14:17:16;;;;;;;;;;;;;;;25.36;63.36;99635.07;1686744;83;21059;-60
2022/07/22 14:19:43;;;;;;;16.90;12.93;;;;;;;25.22;63.62;99634.75;1683991;83;20218;-61
2022/07/22 14:22:10;;;;;;;15.83;12.28;;;;;;;25.16;63.85;99631.42;1688925;83;21044;-60
2022/07/22 14:24:38;;;;;;;15.10;13.08;;;;;;;25.31;64.65;99632.89;1674898;83;21009;-61
2022/07/22 14:27:05;;;;;;;16.67;14.20;;;;;;;25.32;64.14;99627.05;1694374;83;21032;-61
2022/07/22 14:29:31;;;;;;;19.10;13.43;;;;;;;25.18;64.27;99626.75;1695463;84;21461;-61
2022/07/22 14:34:08;;;;;;;17.20;12.37;;;;;;;24.92;64.82;99619.37;1868881;76;23353;-60
2022/07/22 14:36:35;;;;;;;20.48;13.45;;;;;;;24.76;65.17;99627.73;1837633;77;20870;-60
2022/07/22 14:39:02;;;;;;;14.93;13.15;;;;;;;24.62;65.13;99621.73;1824774;77;21506;-60
2022/07/22 14:41:29;;;;;;;18.23;13.80;;;;;;;24.54;65.38;99624.38;1834056;77;21036;-59
2022/07/22 14:43:55;;;;;;;;;;;;;;;24.44;65.50;99632.52;1834535;77;20993;-60
2022/07/22 14:46:22;;;;;;;10.98;9.75;;;;;;;24.41;66.05;99670.69;1821444;76;20315;-59
2022/07/22 14:48:52;;;;;;;10.65;7.25;;;;;;;24.34;65.93;99677.19;1815543;77;21034;-60
2022/07/22 14:51:17;;;;;;;6.70;5.65;;;;;;;24.20;65.80;99687.97;1820572;77;21054;-59
2022/07/22 14:53:45;;;;;;;5.30;3.62;;;;;;;23.67;66.19;99694.34;1805591;78;21047;-60
2022/07/22 14:56:12;;;;;;;5.53;3.22;;;;;;;23.28;66.33;99696.58;1819083;78;20961;-60
2022/07/22 14:58:38;;;;;;;5.83;3.37;;;;;;;23.07;66.80;99697.72;1813036;76;20977;-60
2022/07/22 15:01:05;;;;;;;4.72;3.60;;;;;;;22.94;67.66;99695.43;1831376;77;20924;-59
2022/07/22 15:03:32;;;;;;;4.87;3.65;;;;;;;22.87;67.06;99689.03;1823470;77;21154;-60
2022/07/22 15:05:58;;;;;;;5.17;3.95;;;;;;;22.91;67.29;99694.41;1822458;77;21009;-60
2022/07/22 15:08:25;;;;;;;4.97;4.10;;;;;;;23.12;67.59;99690.11;1814086;78;21337;-60
2022/07/22 15:10:51;;;;;;;;;;;;;;;23.05;67.57;99698.86;1815002;77;21036;-60
2022/07/22 15:13:20;;;;;;;7.53;4.78;;;;;;;22.89;68.12;99696.37;1821772;77;20177;-60
2022/07/22 15:15:47;;;;;;;6.62;4.40;;;;;;;22.65;68.67;99702.78;1803637;78;21020;-61
2022/07/22 15:18:14;;;;;;;12.05;5.00;;;;;;;22.43;68.96;99711.52;1813277;77;21569;-60
2022/07/22 15:20:42;;;;;;;5.17;4.65;;;;;;;22.30;69.17;99708.40;1821766;77;21051;-60
2022/07/22 15:23:09;;;;;;;4.92;4.17;;;;;;;22.13;70.01;99714.81;1830796;77;20937;-59
2022/07/22 15:25:37;;;;;;;3.98;3.58;;;;;;;21.90;71.06;99713.48;1804405;78;21036;-59
2022/07/22 15:28:06;;;;;;;5.60;4.30;;;;;;;21.84;71.69;99706.93;1808689;78;21106;-59
2022/07/22 15:30:34;;;;;;;4.58;3.20;;;;;;;21.72;71.25;99712.58;1812034;78;20993;-60
2022/07/22 15:33:01;;;;;;;;;;;;;;;21.62;72.67;99710.80;1815505;77;20988;-60
2022/07/22 15:35:29;;;;;;;4.62;4.22;;;;;;;21.44;73.03;99717.81;1822893;78;20253;-60
2022/07/22 15:37:56;;;;;;;4.37;3.98;;;;;;;21.27;72.53;99725.14;1815255;78;21649;-60
2022/07/22 15:40:24;;;;;;;;;;;;;;;21.27;72.78;99726.47;1819102;78;21694;-59
2022/07/22 15:42:52;;;;;;;5.65;3.40;;;;;;;21.19;75.25;99717.38;1821167;77;20343;-59
2022/07/22 15:45:25;;;;;;;3.50;3.20;;;;;;;21.05;74.18;99720.45;1821432;77;20991;-59
2022/07/22 15:47:51;;;;;;;4.15;2.55;;;;;;;21.00;74.03;99725.34;1811729;76;20926;-59
2022/07/22 15:50:20;;;;;;;4.20;3.10;;;;;;;21.11;73.61;99715.08;1824968;77;20948;-59
2022/07/22 15:52:49;;;;;;;4.22;3.20;;;;;;;21.40;73.83;99711.13;1814134;78;21780;-59
2022/07/22 15:55:18;;;;;;;3.45;2.90;;;;;;;21.66;73.70;99714.83;1823543;78;21176;-59
2022/07/22 16:00:34;;;;;;;3.20;2.90;;;;;;;21.78;73.19;99712.00;1782447;77;38544;-59
2022/07/22 16:04:04;;;;;;;4.20;3.80;;;;;;;22.03;73.20;99706.03;1846096;76;22821;-58
2022/07/22 16:06:31;;;;;;;;;;;;;;;22.01;72.85;99714.62;1806645;78;20953;-58
2022/07/22 16:09:00;;;;;;;5.10;3.52;;;;;;;22.17;72.88;99715.84;1821088;77;21252;-58
2022/07/22 16:11:28;;;;;;;4.62;3.85;;;;;;;22.23;73.23;99708.62;1814353;77;20986;-58
2022/07/22 16:13:55;;;;;;;5.00;3.52;;;;;;;22.25;72.84;99717.30;1793195;78;21021;-58
2022/07/22 16:16:25;;;;;;;7.30;4.03;;;;;;;22.25;73.31;99712.82;1821656;77;21005;-59
2022/07/22 16:18:51;;;;;;;4.58;3.90;;;;;;;22.19;72.73;99707.27;1819299;78;21016;-59
2022/07/22 16:21:18;;;;;;;;;;;;;;;21.97;72.66;99713.27;1827886;77;21066;-60
2022/07/22 16:23:45;;;;;;;4.85;3.92;;;;;;;21.99;73.11;99715.29;1827837;77;21278;-60
2022/07/22 16:26:12;;;;;;;4.05;3.67;;;;;;;21.97;72.77;99713.27;1823067;77;22109;-60
2022/07/22 16:28:45;;;;;;;4.30;3.90;;;;;;;22.09;73.23;99708.09;1819054;77;21177;-59
2022/07/22 16:31:07;;;;;;;4.50;3.90;;;;;;;22.24;73.21;99716.48;1815186;78;21124;-61
2022/07/22 16:33:34;;;;;;;6.05;4.58;;;;;;;22.52;73.08;99719.96;1821895;77;21733;-60
2022/07/22 16:36:01;;;;;;;7.12;4.80;;;;;;;22.58;72.85;99717.70;1803448;78;21543;-60
2022/07/22 16:38:27;;;;;;;5.58;4.75;;;;;;;22.74;72.77;99715.17;1802105;78;21040;-60
2022/07/22 16:40:54;;;;;;;7.67;5.25;;;;;;;22.89;72.66;99709.69;1810892;78;20949;-60
2022/07/22 16:43:21;;;;;;;6.40;5.30;;;;;;;22.88;72.39;99709.83;1819590;77;21104;-60
2022/07/22 16:48:04;;;;;;;5.35;4.85;;;;;;;22.47;72.16;99702.77;1869457;75;23612;-59
2022/07/22 16:50:31;;;;;;;6.08;5.47;;;;;;;22.26;72.53;99706.50;1817193;77;20905;-59
2022/07/22 16:52:58;;;;;;;;;;;;;;;22.23;72.62;99701.98;1839822;76;21072;-59
2022/07/22 16:55:24;;;;;;;7.05;5.50;;;;;;;22.11;72.87;99707.46;1825495;77;20434;-59
2022/07/22 16:57:51;;;;;;;8.43;5.53;;;;;;;22.06;73.28;99697.75;1836603;77;20986;-58
2022/07/22 17:00:18;;;;;;;9.75;5.60;;;;;;;21.95;73.07;99700.59;1808870;77;44804;-60
2022/07/22 17:02:45;;;;;;;7.60;5.83;;;;;;;21.73;73.81;99692.98;1786519;78;22347;-60
2022/07/22 17:05:12;;;;;;;7.90;5.55;;;;;;;21.67;73.54;99688.59;1779632;80;21073;-60
2022/07/22 17:07:39;;;;;;;7.17;6.17;;;;;;;21.67;73.82;99680.62;1788969;80;20910;-60
2022/07/22 17:10:08;;;;;;;7.62;6.03;;;;;;;21.66;73.83;99690.91;1790343;78;21075;-60
2022/07/22 17:12:35;;;;;;;6.67;5.92;;;;;;;21.76;74.59;99690.03;1797606;78;20992;-60
2022/07/22 17:15:03;;;;;;;10.53;6.42;;;;;;;21.85;74.43;99697.16;1781893;78;21553;-60
2022/07/22 17:17:31;;;;;;;8.48;6.53;;;;;;;21.91;74.26;99693.91;1792012;79;21080;-60
2022/07/22 17:19:58;;;;;;;6.97;6.08;;;;;;;21.99;74.14;99696.69;1794349;78;21616;-60
2022/07/22 17:22:25;;;;;;;8.08;6.53;;;;;;;21.99;74.28;99698.52;1798954;78;21004;-60
2022/07/22 17:24:52;;;;;;;7.10;6.45;;;;;;;21.99;74.00;99699.34;1791834;79;21734;-60
2022/07/22 17:27:19;;;;;;;7.47;5.70;;;;;;;21.98;73.94;99694.98;1785655;79;21579;-60
2022/07/22 17:29:45;;;;;;;6.95;5.97;;;;;;;21.96;74.29;99708.94;1793762;78;22216;-60
2022/07/22 17:32:12;;;;;;;7.70;5.95;;;;;;;21.90;73.97;99710.83;1796077;78;21043;-60
2022/07/22 17:34:39;;;;;;;6.65;6.05;;;;;;;21.86;74.08;99709.45;1751014;80;20973;-60
2022/07/22 17:37:05;;;;;;;7.80;7.00;;;;;;;21.75;73.98;99707.81;1738414;81;21567;-60
2022/07/22 17:39:32;;;;;;;7.90;6.30;;;;;;;21.74;74.05;99713.28;1709479;82;21545;-60
2022/07/22 17:41:59;;;;;;;7.72;6.78;;;;;;;21.74;74.28;99714.61;1728658;82;21449;-60
2022/07/22 17:44:26;;;;;;;7.22;6.53;;;;;;;21.60;73.98;99707.44;1742924;81;21081;-60
2022/07/22 17:46:52;;;;;;;;;;;;;;;21.57;74.12;99709.05;1739876;82;21085;-60
2022/07/22 17:49:19;;;;;;;9.18;6.95;;;;;;;21.56;74.23;99714.00;1740351;81;20429;-60
2022/07/22 17:51:46;;;;;;;8.53;6.42;;;;;;;21.48;74.22;99705.91;1739920;82;21012;-60
2022/07/22 17:54:12;;;;;;;10.30;7.72;;;;;;;21.47;74.93;99711.37;1727674;81;21424;-59
2022/07/22 17:56:40;;;;;;;10.45;7.03;;;;;;;21.30;74.23;99700.46;1740335;81;21071;-60
2022/07/22 17:59:07;;;;;;;8.53;7.53;;;;;;;21.14;74.19;99702.84;1729722;81;21521;-60
2022/07/22 18:01:34;;;;;;;7.10;6.40;;;;;;;20.90;74.86;99700.63;1740147;81;20941;-59
2022/07/22 18:04:01;;;;;;;10.35;9.20;;;;;;;20.66;74.82;99707.16;1733433;82;20973;-60
2022/07/22 18:06:27;;;;;;;11.45;7.75;;;;;;;20.53;74.90;99707.92;1735999;81;21490;-60